createdAt,value
2018-05-07T00:00:02.492Z,2.71
2018-05-07T00:00:15.071Z,2.71
2018-05-07T00:00:27.500Z,2.71
2018-05-07T00:00:39.959Z,2.71
2018-05-07T00:00:52.516Z,2.71
2018-05-07T00:01:05.526Z,2.71
2018-05-07T00:01:18.928Z,2.71
2018-05-07T00:01:31.500Z,2.71
2018-05-07T00:01:43.953Z,2.71
2018-05-07T00:01:56.525Z,2.87
2018-05-07T00:02:09.025Z,2.87
2018-05-07T00:02:21.521Z,2.87
2018-05-07T00:02:34.038Z,2.87
2018-05-07T00:02:46.563Z,2.87
2018-05-07T00:02:59.189Z,2.87
2018-05-07T00:03:11.720Z,2.87
2018-05-07T00:03:24.279Z,2.87
2018-05-07T00:03:36.714Z,2.87
2018-05-07T00:03:49.174Z,2.87
2018-05-07T00:04:01.611Z,2.87
2018-05-07T00:04:14.099Z,2.87
2018-05-07T00:04:26.518Z,2.87
2018-05-07T00:04:38.937Z,2.87
2018-05-07T00:04:51.637Z,2.87
2018-05-07T00:05:04.187Z,2.87
2018-05-07T00:05:16.642Z,2.87
2018-05-07T00:05:29.071Z,2.87
2018-05-07T00:05:41.527Z,2.87
2018-05-07T00:05:54.982Z,2.87
2018-05-07T00:06:09.016Z,2.87
2018-05-07T00:06:22.442Z,2.87
2018-05-07T00:06:35.031Z,2.87
2018-05-07T00:06:47.455Z,2.87
2018-05-07T00:06:59.973Z,2.87
2018-05-07T00:07:12.537Z,2.87
2018-05-07T00:07:25.165Z,2.87
2018-05-07T00:07:37.743Z,2.87
2018-05-07T00:07:50.215Z,2.87
2018-05-07T00:08:02.784Z,2.87
2018-05-07T00:08:15.309Z,2.87
2018-05-07T00:08:27.747Z,2.87
2018-05-07T00:08:40.211Z,2.87
2018-05-07T00:08:52.661Z,2.87
2018-05-07T00:09:05.698Z,2.87
2018-05-07T00:09:18.545Z,2.87
2018-05-07T00:09:31.496Z,2.87
2018-05-07T00:09:45.019Z,2.87
2018-05-07T00:09:57.516Z,2.87
2018-05-07T00:10:10.148Z,2.87
2018-05-07T00:10:22.679Z,2.87
2018-05-07T00:10:35.116Z,2.87
2018-05-07T00:10:47.638Z,2.87
2018-05-07T00:11:00.051Z,2.87
2018-05-07T00:11:12.558Z,2.87
2018-05-07T00:11:25.060Z,2.87
2018-05-07T00:11:37.786Z,2.87
2018-05-07T00:11:51.237Z,2.82
2018-05-07T00:12:03.802Z,2.82
2018-05-07T00:12:16.211Z,2.82
2018-05-07T00:12:28.635Z,2.82
2018-05-07T00:12:41.074Z,2.82
2018-05-07T00:12:53.727Z,2.82
2018-05-07T00:13:06.286Z,2.82
2018-05-07T00:13:18.813Z,2.82
2018-05-07T00:13:31.331Z,2.82
2018-05-07T00:13:43.760Z,2.82
2018-05-07T00:13:56.211Z,2.82
2018-05-07T00:14:08.785Z,2.82
2018-05-07T00:14:21.245Z,2.82
2018-05-07T00:14:33.718Z,2.82
2018-05-07T00:14:46.131Z,2.82
2018-05-07T00:14:58.539Z,2.82
2018-05-07T00:15:10.941Z,2.82
2018-05-07T00:15:23.345Z,2.82
2018-05-07T00:15:35.832Z,2.82
2018-05-07T00:15:48.543Z,2.82
2018-05-07T00:16:00.978Z,2.82
2018-05-07T00:16:13.455Z,2.82
2018-05-07T00:16:25.849Z,2.82
2018-05-07T00:16:38.374Z,2.82
2018-05-07T00:16:50.849Z,2.82
2018-05-07T00:17:03.268Z,2.82
2018-05-07T00:17:15.719Z,2.82
2018-05-07T00:17:28.124Z,2.82
2018-05-07T00:17:40.534Z,2.82
2018-05-07T00:17:52.975Z,2.82
2018-05-07T00:18:05.377Z,2.82
2018-05-07T00:18:17.909Z,2.82
2018-05-07T00:18:30.333Z,2.82
2018-05-07T00:18:42.738Z,2.82
2018-05-07T00:18:55.171Z,2.82
2018-05-07T00:19:07.597Z,2.82
2018-05-07T00:19:20.021Z,2.82
2018-05-07T00:19:32.578Z,2.82
2018-05-07T00:19:45.016Z,2.82
2018-05-07T00:19:57.409Z,2.82
2018-05-07T00:20:09.827Z,2.82
2018-05-07T00:20:22.222Z,2.82
2018-05-07T00:20:34.813Z,2.82
2018-05-07T00:20:47.965Z,2.82
2018-05-07T00:21:00.363Z,2.82
2018-05-07T00:21:12.791Z,2.82
2018-05-07T00:21:25.197Z,2.82
2018-05-07T00:21:37.619Z,2.82
2018-05-07T00:21:50.029Z,2.82
2018-05-07T00:22:02.452Z,2.99
2018-05-07T00:22:14.953Z,2.99
2018-05-07T00:22:27.488Z,2.99
2018-05-07T00:22:40.357Z,2.99
2018-05-07T00:22:52.771Z,2.99
2018-05-07T00:23:05.203Z,2.99
2018-05-07T00:23:17.719Z,2.99
2018-05-07T00:23:30.194Z,2.99
2018-05-07T00:23:42.622Z,2.99
2018-05-07T00:23:55.181Z,2.99
2018-05-07T00:24:07.586Z,2.99
2018-05-07T00:24:19.995Z,2.99
2018-05-07T00:24:32.589Z,2.99
2018-05-07T00:24:45.012Z,2.99
2018-05-07T00:24:57.453Z,2.99
2018-05-07T00:25:09.879Z,2.99
2018-05-07T00:25:22.317Z,2.99
2018-05-07T00:25:34.842Z,2.99
2018-05-07T00:25:47.294Z,2.99
2018-05-07T00:25:59.699Z,2.99
2018-05-07T00:26:12.102Z,2.99
2018-05-07T00:26:24.529Z,2.99
2018-05-07T00:26:37.468Z,2.99
2018-05-07T00:26:50.425Z,2.99
2018-05-07T00:27:02.890Z,2.99
2018-05-07T00:27:15.381Z,2.99
2018-05-07T00:27:27.901Z,2.99
2018-05-07T00:27:40.407Z,2.99
2018-05-07T00:27:52.834Z,2.99
2018-05-07T00:28:05.244Z,2.99
2018-05-07T00:28:17.982Z,2.99
2018-05-07T00:28:30.844Z,2.99
2018-05-07T00:28:43.567Z,2.99
2018-05-07T00:28:55.976Z,2.99
2018-05-07T00:29:08.492Z,2.99
2018-05-07T00:29:20.907Z,2.99
2018-05-07T00:29:33.390Z,2.99
2018-05-07T00:29:45.789Z,2.99
2018-05-07T00:29:58.204Z,2.99
2018-05-07T00:30:10.653Z,2.99
2018-05-07T00:30:23.072Z,2.99
2018-05-07T00:30:35.481Z,2.99
2018-05-07T00:30:47.917Z,2.99
2018-05-07T00:31:00.371Z,2.99
2018-05-07T00:31:12.772Z,2.99
2018-05-07T00:31:25.210Z,2.99
2018-05-07T00:31:37.620Z,2.99
2018-05-07T00:31:50.080Z,2.99
2018-05-07T00:32:02.525Z,2.88
2018-05-07T00:32:14.955Z,2.88
2018-05-07T00:32:27.361Z,2.88
2018-05-07T00:32:39.774Z,2.88
2018-05-07T00:32:52.190Z,2.88
2018-05-07T00:33:04.597Z,2.88
2018-05-07T00:33:17.859Z,2.88
2018-05-07T00:33:30.565Z,2.88
2018-05-07T00:33:42.972Z,2.88
2018-05-07T00:33:55.423Z,2.88
2018-05-07T00:34:07.830Z,2.88
2018-05-07T00:34:20.238Z,2.88
2018-05-07T00:34:32.725Z,2.88
2018-05-07T00:34:45.250Z,2.88
2018-05-07T00:34:58.030Z,2.88
2018-05-07T00:35:10.836Z,2.88
2018-05-07T00:35:23.259Z,2.88
2018-05-07T00:35:35.661Z,2.88
2018-05-07T00:35:48.083Z,2.88
2018-05-07T00:36:00.505Z,2.88
2018-05-07T00:36:12.911Z,2.88
2018-05-07T00:36:25.329Z,2.88
2018-05-07T00:36:37.734Z,2.88
2018-05-07T00:36:50.140Z,2.88
2018-05-07T00:37:02.554Z,2.88
2018-05-07T00:37:14.954Z,2.88
2018-05-07T00:37:27.362Z,2.88
2018-05-07T00:37:39.773Z,2.88
2018-05-07T00:37:52.221Z,2.88
2018-05-07T00:38:04.636Z,2.88
2018-05-07T00:38:17.151Z,2.88
2018-05-07T00:38:29.572Z,2.88
2018-05-07T00:38:41.980Z,2.88
2018-05-07T00:38:54.448Z,2.88
2018-05-07T00:39:06.863Z,2.88
2018-05-07T00:39:19.264Z,2.88
2018-05-07T00:39:31.664Z,2.88
2018-05-07T00:39:44.085Z,2.88
2018-05-07T00:39:56.500Z,2.88
2018-05-07T00:40:08.926Z,2.88
2018-05-07T00:40:21.342Z,2.88
2018-05-07T00:40:33.787Z,2.88
2018-05-07T00:40:46.194Z,2.88
2018-05-07T00:40:58.593Z,2.88
2018-05-07T00:41:10.994Z,2.88
2018-05-07T00:41:23.557Z,2.88
2018-05-07T00:41:35.968Z,2.88
2018-05-07T00:41:48.380Z,2.88
2018-05-07T00:42:00.785Z,3.08
2018-05-07T00:42:13.202Z,3.08
2018-05-07T00:42:25.610Z,3.08
2018-05-07T00:42:38.017Z,3.08
2018-05-07T00:42:50.470Z,3.08
2018-05-07T00:43:02.872Z,3.08
2018-05-07T00:43:15.278Z,3.08
2018-05-07T00:43:27.693Z,3.08
2018-05-07T00:43:40.172Z,3.08
2018-05-07T00:43:52.817Z,3.08
2018-05-07T00:44:05.317Z,3.08
2018-05-07T00:44:17.722Z,3.08
2018-05-07T00:44:30.128Z,3.08
2018-05-07T00:44:42.549Z,3.08
2018-05-07T00:44:54.967Z,3.08
2018-05-07T00:45:07.386Z,3.08
2018-05-07T00:45:19.803Z,3.08
2018-05-07T00:45:32.221Z,3.08
2018-05-07T00:45:44.637Z,3.08
2018-05-07T00:45:57.066Z,3.08
2018-05-07T00:46:09.482Z,3.08
2018-05-07T00:46:21.880Z,3.08
2018-05-07T00:46:34.290Z,3.08
2018-05-07T00:46:46.704Z,3.08
2018-05-07T00:46:59.095Z,3.08
2018-05-07T00:47:11.517Z,3.08
2018-05-07T00:47:23.917Z,3.08
2018-05-07T00:47:36.324Z,3.08
2018-05-07T00:47:48.738Z,3.08
2018-05-07T00:48:01.183Z,3.08
2018-05-07T00:48:13.714Z,3.08
2018-05-07T00:48:26.116Z,3.08
2018-05-07T00:48:38.533Z,3.08
2018-05-07T00:48:50.949Z,3.08
2018-05-07T00:49:03.377Z,3.08
2018-05-07T00:49:15.776Z,3.08
2018-05-07T00:49:28.191Z,3.08
2018-05-07T00:49:40.683Z,3.08
2018-05-07T00:49:53.109Z,3.08
2018-05-07T00:50:05.617Z,3.08
2018-05-07T00:50:18.036Z,3.08
2018-05-07T00:50:30.668Z,3.08
2018-05-07T00:50:43.169Z,3.08
2018-05-07T00:50:55.600Z,3.08
2018-05-07T00:51:08.011Z,3.08
2018-05-07T00:51:20.416Z,3.08
2018-05-07T00:51:32.844Z,3.08
2018-05-07T00:51:45.326Z,3.08
2018-05-07T00:51:57.757Z,3.18
2018-05-07T00:52:10.160Z,3.18
2018-05-07T00:52:22.570Z,3.18
2018-05-07T00:52:34.966Z,3.18
2018-05-07T00:52:47.367Z,3.18
2018-05-07T00:52:59.792Z,3.18
2018-05-07T00:53:12.247Z,3.18
2018-05-07T00:53:24.658Z,3.18
2018-05-07T00:53:37.072Z,3.18
2018-05-07T00:53:49.483Z,3.18
2018-05-07T00:54:01.910Z,3.18
2018-05-07T00:54:14.317Z,3.18
2018-05-07T00:54:26.721Z,3.18
2018-05-07T00:54:39.142Z,3.18
2018-05-07T00:54:51.606Z,3.18
2018-05-07T00:55:04.017Z,3.18
2018-05-07T00:55:16.435Z,3.18
2018-05-07T00:55:28.832Z,3.18
2018-05-07T00:55:41.286Z,3.18
2018-05-07T00:55:53.695Z,3.18
2018-05-07T00:56:06.109Z,3.18
2018-05-07T00:56:18.505Z,3.18
2018-05-07T00:56:30.907Z,3.18
2018-05-07T00:56:43.305Z,3.18
2018-05-07T00:56:55.737Z,3.18
2018-05-07T00:57:08.148Z,3.18
2018-05-07T00:57:20.547Z,3.18
2018-05-07T00:57:32.965Z,3.18
2018-05-07T00:57:45.466Z,3.18
2018-05-07T00:57:57.885Z,3.18
2018-05-07T00:58:10.290Z,3.18
2018-05-07T00:58:22.707Z,3.18
2018-05-07T00:58:35.133Z,3.18
2018-05-07T00:58:47.548Z,3.18
2018-05-07T00:58:59.962Z,3.18
2018-05-07T00:59:12.371Z,3.18
2018-05-07T00:59:24.798Z,3.18
2018-05-07T00:59:37.201Z,3.18
2018-05-07T00:59:49.605Z,3.18
2018-05-07T01:00:02.032Z,3.18
2018-05-07T01:00:14.452Z,3.18
2018-05-07T01:00:26.904Z,3.18
2018-05-07T01:00:39.505Z,3.18
2018-05-07T01:00:51.920Z,3.18
2018-05-07T01:01:04.317Z,3.18
2018-05-07T01:01:16.718Z,3.18
2018-05-07T01:01:29.141Z,3.18
2018-05-07T01:01:41.570Z,3.18
2018-05-07T01:01:54.042Z,3.15
2018-05-07T01:02:06.479Z,3.15
2018-05-07T01:02:19.048Z,3.15
2018-05-07T01:02:31.476Z,3.15
2018-05-07T01:02:43.893Z,3.15
2018-05-07T01:02:56.325Z,3.15
2018-05-07T01:03:08.741Z,3.15
2018-05-07T01:03:21.162Z,3.15
2018-05-07T01:03:33.593Z,3.15
2018-05-07T01:03:46.026Z,3.15
2018-05-07T01:03:58.470Z,3.15
2018-05-07T01:04:11.008Z,3.15
2018-05-07T01:04:23.419Z,3.15
2018-05-07T01:04:35.851Z,3.15
2018-05-07T01:04:48.258Z,3.15
2018-05-07T01:05:00.663Z,3.15
2018-05-07T01:05:13.086Z,3.15
2018-05-07T01:05:25.583Z,3.15
2018-05-07T01:05:38.000Z,3.15
2018-05-07T01:05:50.486Z,3.15
2018-05-07T01:06:02.894Z,3.15
2018-05-07T01:06:15.315Z,3.15
2018-05-07T01:06:27.755Z,3.15
2018-05-07T01:06:40.240Z,3.15
2018-05-07T01:06:52.641Z,3.15
2018-05-07T01:07:05.103Z,3.15
2018-05-07T01:07:17.520Z,3.15
2018-05-07T01:07:30.014Z,3.15
2018-05-07T01:07:42.417Z,3.15
2018-05-07T01:07:54.844Z,3.15
2018-05-07T01:08:07.260Z,3.15
2018-05-07T01:08:19.730Z,3.15
2018-05-07T01:08:32.123Z,3.15
2018-05-07T01:08:44.533Z,3.15
2018-05-07T01:08:56.955Z,3.15
2018-05-07T01:09:09.363Z,3.15
2018-05-07T01:09:21.758Z,3.15
2018-05-07T01:09:34.210Z,3.15
2018-05-07T01:09:46.610Z,3.15
2018-05-07T01:09:59.011Z,3.15
2018-05-07T01:10:11.428Z,3.15
2018-05-07T01:10:23.831Z,3.15
2018-05-07T01:10:36.248Z,3.15
2018-05-07T01:10:48.651Z,3.15
2018-05-07T01:11:01.054Z,3.15
2018-05-07T01:11:13.466Z,3.15
2018-05-07T01:11:26.160Z,3.15
2018-05-07T01:11:38.582Z,3.15
2018-05-07T01:11:50.996Z,3.15
2018-05-07T01:12:03.412Z,3.26
2018-05-07T01:12:15.821Z,3.26
2018-05-07T01:12:28.240Z,3.26
2018-05-07T01:12:40.764Z,3.26
2018-05-07T01:12:54.162Z,3.26
2018-05-07T01:13:06.653Z,3.26
2018-05-07T01:13:19.057Z,3.26
2018-05-07T01:13:31.473Z,3.26
2018-05-07T01:13:43.892Z,3.26
2018-05-07T01:13:56.299Z,3.26
2018-05-07T01:14:08.702Z,3.26
2018-05-07T01:14:21.113Z,3.26
2018-05-07T01:14:33.528Z,3.26
2018-05-07T01:14:45.974Z,3.26
2018-05-07T01:14:58.396Z,3.26
2018-05-07T01:15:10.827Z,3.26
2018-05-07T01:15:23.247Z,3.26
2018-05-07T01:15:35.677Z,3.26
2018-05-07T01:15:48.079Z,3.26
2018-05-07T01:16:00.483Z,3.26
2018-05-07T01:16:12.910Z,3.26
2018-05-07T01:16:25.394Z,3.26
2018-05-07T01:16:37.803Z,3.26
2018-05-07T01:16:50.223Z,3.26
2018-05-07T01:17:02.624Z,3.26
2018-05-07T01:17:15.111Z,3.26
2018-05-07T01:17:27.535Z,3.26
2018-05-07T01:17:40.065Z,3.26
2018-05-07T01:17:52.568Z,3.26
2018-05-07T01:18:04.995Z,3.26
2018-05-07T01:18:17.593Z,3.26
2018-05-07T01:18:29.989Z,3.26
2018-05-07T01:18:42.387Z,3.26
2018-05-07T01:18:54.788Z,3.26
2018-05-07T01:19:07.220Z,3.26
2018-05-07T01:19:19.617Z,3.26
2018-05-07T01:19:32.024Z,3.26
2018-05-07T01:19:44.431Z,3.26
2018-05-07T01:19:56.838Z,3.26
2018-05-07T01:20:09.317Z,3.26
2018-05-07T01:20:21.745Z,3.26
2018-05-07T01:20:34.141Z,3.26
2018-05-07T01:20:46.547Z,3.26
2018-05-07T01:20:58.981Z,3.26
2018-05-07T01:21:11.393Z,3.26
2018-05-07T01:21:23.807Z,3.26
2018-05-07T01:21:36.223Z,3.26
2018-05-07T01:21:48.619Z,3.26
2018-05-07T01:22:01.026Z,3.2
2018-05-07T01:22:13.423Z,3.2
2018-05-07T01:22:25.846Z,3.2
2018-05-07T01:22:38.272Z,3.2
2018-05-07T01:22:50.699Z,3.2
2018-05-07T01:23:03.154Z,3.2
2018-05-07T01:23:15.559Z,3.2
2018-05-07T01:23:28.054Z,3.2
2018-05-07T01:23:40.471Z,3.2
2018-05-07T01:23:53.023Z,3.2
2018-05-07T01:24:05.450Z,3.2
2018-05-07T01:24:17.868Z,3.2
2018-05-07T01:24:30.303Z,3.2
2018-05-07T01:24:42.860Z,3.2
2018-05-07T01:24:55.285Z,3.2
2018-05-07T01:25:07.770Z,3.2
2018-05-07T01:25:20.171Z,3.2
2018-05-07T01:25:32.575Z,3.2
2018-05-07T01:25:44.980Z,3.2
2018-05-07T01:25:57.392Z,3.2
2018-05-07T01:26:09.811Z,3.2
2018-05-07T01:26:22.240Z,3.2
2018-05-07T01:26:34.653Z,3.2
2018-05-07T01:26:47.127Z,3.2
2018-05-07T01:26:59.553Z,3.2
2018-05-07T01:27:11.988Z,3.2
2018-05-07T01:27:24.403Z,3.2
2018-05-07T01:27:36.816Z,3.2
2018-05-07T01:27:49.229Z,3.2
2018-05-07T01:28:01.644Z,3.2
2018-05-07T01:28:14.064Z,3.2
2018-05-07T01:28:26.481Z,3.2
2018-05-07T01:28:38.918Z,3.2
2018-05-07T01:28:51.340Z,3.2
2018-05-07T01:29:03.770Z,3.2
2018-05-07T01:29:16.177Z,3.2
2018-05-07T01:29:28.617Z,3.2
2018-05-07T01:29:41.058Z,3.2
2018-05-07T01:29:53.473Z,3.2
2018-05-07T01:30:05.877Z,3.2
2018-05-07T01:30:18.281Z,3.2
2018-05-07T01:30:30.706Z,3.2
2018-05-07T01:30:43.122Z,3.2
2018-05-07T01:30:55.526Z,3.2
2018-05-07T01:31:08.005Z,3.2
2018-05-07T01:31:20.409Z,3.2
2018-05-07T01:31:32.821Z,3.2
2018-05-07T01:31:45.237Z,3.2
2018-05-07T01:31:57.661Z,3.35
2018-05-07T01:32:10.075Z,3.35
2018-05-07T01:32:22.479Z,3.35
2018-05-07T01:32:34.894Z,3.35
2018-05-07T01:32:47.308Z,3.35
2018-05-07T01:32:59.724Z,3.35
2018-05-07T01:33:12.133Z,3.35
2018-05-07T01:33:24.555Z,3.35
2018-05-07T01:33:36.955Z,3.35
2018-05-07T01:33:49.362Z,3.35
2018-05-07T01:34:01.766Z,3.35
2018-05-07T01:34:14.178Z,3.35
2018-05-07T01:34:26.585Z,3.35
2018-05-07T01:34:39.053Z,3.35
2018-05-07T01:34:51.455Z,3.35
2018-05-07T01:35:03.863Z,3.35
2018-05-07T01:35:16.293Z,3.35
2018-05-07T01:35:28.690Z,3.35
2018-05-07T01:35:41.108Z,3.35
2018-05-07T01:35:53.533Z,3.35
2018-05-07T01:36:05.938Z,3.35
2018-05-07T01:36:18.346Z,3.35
2018-05-07T01:36:30.757Z,3.35
2018-05-07T01:36:43.166Z,3.35
2018-05-07T01:36:55.597Z,3.35
2018-05-07T01:37:08.024Z,3.35
2018-05-07T01:37:20.430Z,3.35
2018-05-07T01:37:32.832Z,3.35
2018-05-07T01:37:45.256Z,3.35
2018-05-07T01:37:57.667Z,3.35
2018-05-07T01:38:10.074Z,3.35
2018-05-07T01:38:22.610Z,3.35
2018-05-07T01:38:35.019Z,3.35
2018-05-07T01:38:47.417Z,3.35
2018-05-07T01:38:59.850Z,3.35
2018-05-07T01:39:12.248Z,3.35
2018-05-07T01:39:24.648Z,3.35
2018-05-07T01:39:37.050Z,3.35
2018-05-07T01:39:49.450Z,3.35
2018-05-07T01:40:01.856Z,3.35
2018-05-07T01:40:14.257Z,3.35
2018-05-07T01:40:26.661Z,3.35
2018-05-07T01:40:39.067Z,3.35
2018-05-07T01:40:51.486Z,3.35
2018-05-07T01:41:03.893Z,3.35
2018-05-07T01:41:16.294Z,3.35
2018-05-07T01:41:28.694Z,3.35
2018-05-07T01:41:41.262Z,3.35
2018-05-07T01:41:53.667Z,3.35
2018-05-07T01:42:06.088Z,3.56
2018-05-07T01:42:18.491Z,3.56
2018-05-07T01:42:30.892Z,3.56
2018-05-07T01:42:43.306Z,3.56
2018-05-07T01:42:55.711Z,3.56
2018-05-07T01:43:08.109Z,3.56
2018-05-07T01:43:20.579Z,3.56
2018-05-07T01:43:33.011Z,3.56
2018-05-07T01:43:45.437Z,3.56
2018-05-07T01:43:57.980Z,3.56
2018-05-07T01:44:10.380Z,3.56
2018-05-07T01:44:22.795Z,3.56
2018-05-07T01:44:35.207Z,3.56
2018-05-07T01:44:47.604Z,3.56
2018-05-07T01:45:00.019Z,3.56
2018-05-07T01:45:12.454Z,3.56
2018-05-07T01:45:24.852Z,3.56
2018-05-07T01:45:37.252Z,3.56
2018-05-07T01:45:49.655Z,3.56
2018-05-07T01:46:02.068Z,3.56
2018-05-07T01:46:14.490Z,3.56
2018-05-07T01:46:26.981Z,3.56
2018-05-07T01:46:39.467Z,3.56
2018-05-07T01:46:51.872Z,3.56
2018-05-07T01:47:04.296Z,3.56
2018-05-07T01:47:16.725Z,3.56
2018-05-07T01:47:29.137Z,3.56
2018-05-07T01:47:41.561Z,3.56
2018-05-07T01:47:53.984Z,3.56
2018-05-07T01:48:06.385Z,3.56
2018-05-07T01:48:18.984Z,3.56
2018-05-07T01:48:31.488Z,3.56
2018-05-07T01:48:43.901Z,3.56
2018-05-07T01:48:56.306Z,3.56
2018-05-07T01:49:08.728Z,3.56
2018-05-07T01:49:21.130Z,3.56
2018-05-07T01:49:33.623Z,3.56
2018-05-07T01:49:46.018Z,3.56
2018-05-07T01:49:58.447Z,3.56
2018-05-07T01:50:10.863Z,3.56
2018-05-07T01:50:23.278Z,3.56
2018-05-07T01:50:35.695Z,3.56
2018-05-07T01:50:48.103Z,3.56
2018-05-07T01:51:00.558Z,3.56
2018-05-07T01:51:12.999Z,3.56
2018-05-07T01:51:25.461Z,3.56
2018-05-07T01:51:37.852Z,3.56
2018-05-07T01:51:50.252Z,3.56
2018-05-07T01:52:02.662Z,3.44
2018-05-07T01:52:15.157Z,3.44
2018-05-07T01:52:27.563Z,3.44
2018-05-07T01:52:39.978Z,3.44
2018-05-07T01:52:52.389Z,3.44
2018-05-07T01:53:04.795Z,3.44
2018-05-07T01:53:17.208Z,3.44
2018-05-07T01:53:29.617Z,3.44
2018-05-07T01:53:42.200Z,3.44
2018-05-07T01:53:54.591Z,3.44
2018-05-07T01:54:06.992Z,3.44
2018-05-07T01:54:19.395Z,3.44
2018-05-07T01:54:31.808Z,3.44
2018-05-07T01:54:44.216Z,3.44
2018-05-07T01:54:56.623Z,3.44
2018-05-07T01:55:09.024Z,3.44
2018-05-07T01:55:21.412Z,3.44
2018-05-07T01:55:33.826Z,3.44
2018-05-07T01:55:46.290Z,3.44
2018-05-07T01:55:58.711Z,3.44
2018-05-07T01:56:11.137Z,3.44
2018-05-07T01:56:23.552Z,3.44
2018-05-07T01:56:35.953Z,3.44
2018-05-07T01:56:48.347Z,3.44
2018-05-07T01:57:00.759Z,3.44
2018-05-07T01:57:13.164Z,3.44
2018-05-07T01:57:25.571Z,3.44
2018-05-07T01:57:37.983Z,3.44
2018-05-07T01:57:50.379Z,3.44
2018-05-07T01:58:02.784Z,3.44
2018-05-07T01:58:15.196Z,3.44
2018-05-07T01:58:27.603Z,3.44
2018-05-07T01:58:40.056Z,3.44
2018-05-07T01:58:52.472Z,3.44
2018-05-07T01:59:04.949Z,3.44
2018-05-07T01:59:17.359Z,3.44
2018-05-07T01:59:29.771Z,3.44
2018-05-07T01:59:42.278Z,3.44
2018-05-07T01:59:54.687Z,3.44
2018-05-07T02:00:07.258Z,3.44
2018-05-07T02:00:19.699Z,3.44
2018-05-07T02:00:32.157Z,3.44
2018-05-07T02:00:44.677Z,3.44
2018-05-07T02:00:57.103Z,3.44
2018-05-07T02:01:09.525Z,3.44
2018-05-07T02:01:21.941Z,3.44
2018-05-07T02:01:34.333Z,3.44
2018-05-07T02:01:46.756Z,3.44
2018-05-07T02:01:59.176Z,3.7
2018-05-07T02:02:11.584Z,3.7
2018-05-07T02:02:24.091Z,3.7
2018-05-07T02:02:36.579Z,3.7
2018-05-07T02:02:48.986Z,3.7
2018-05-07T02:03:01.429Z,3.7
2018-05-07T02:03:13.865Z,3.7
2018-05-07T02:03:26.289Z,3.7
2018-05-07T02:03:38.722Z,3.7
2018-05-07T02:03:51.157Z,3.7
2018-05-07T02:04:03.580Z,3.7
2018-05-07T02:04:16.076Z,3.7
2018-05-07T02:04:28.478Z,3.7
2018-05-07T02:04:40.888Z,3.7
2018-05-07T02:04:53.289Z,3.7
2018-05-07T02:05:05.770Z,3.7
2018-05-07T02:05:18.181Z,3.7
2018-05-07T02:05:30.666Z,3.7
2018-05-07T02:05:43.064Z,3.7
2018-05-07T02:05:55.464Z,3.7
2018-05-07T02:06:07.875Z,3.7
2018-05-07T02:06:20.279Z,3.7
2018-05-07T02:06:32.694Z,3.7
2018-05-07T02:06:45.112Z,3.7
2018-05-07T02:06:57.544Z,3.7
2018-05-07T02:07:09.935Z,3.7
2018-05-07T02:07:22.341Z,3.7
2018-05-07T02:07:34.754Z,3.7
2018-05-07T02:07:47.174Z,3.7
2018-05-07T02:07:59.608Z,3.7
2018-05-07T02:08:12.031Z,3.7
2018-05-07T02:08:24.460Z,3.7
2018-05-07T02:08:36.879Z,3.7
2018-05-07T02:08:49.289Z,3.7
2018-05-07T02:09:01.684Z,3.7
2018-05-07T02:09:14.099Z,3.7
2018-05-07T02:09:26.506Z,3.7
2018-05-07T02:09:38.923Z,3.7
2018-05-07T02:09:51.329Z,3.7
2018-05-07T02:10:03.795Z,3.7
2018-05-07T02:10:16.289Z,3.7
2018-05-07T02:10:28.702Z,3.7
2018-05-07T02:10:41.117Z,3.7
2018-05-07T02:10:53.615Z,3.7
2018-05-07T02:11:06.019Z,3.7
2018-05-07T02:11:18.419Z,3.7
2018-05-07T02:11:30.946Z,3.7
2018-05-07T02:11:43.358Z,3.7
2018-05-07T02:11:55.774Z,3.7
2018-05-07T02:12:08.189Z,3.69
2018-05-07T02:12:20.591Z,3.69
2018-05-07T02:12:33.000Z,3.69
2018-05-07T02:12:45.403Z,3.69
2018-05-07T02:12:57.804Z,3.69
2018-05-07T02:13:10.223Z,3.69
2018-05-07T02:13:22.643Z,3.69
2018-05-07T02:13:35.081Z,3.69
2018-05-07T02:13:47.479Z,3.69
2018-05-07T02:13:59.893Z,3.69
2018-05-07T02:14:12.392Z,3.69
2018-05-07T02:14:24.792Z,3.69
2018-05-07T02:14:37.219Z,3.69
2018-05-07T02:14:49.621Z,3.69
2018-05-07T02:15:02.018Z,3.69
2018-05-07T02:15:14.419Z,3.69
2018-05-07T02:15:26.830Z,3.69
2018-05-07T02:15:39.235Z,3.69
2018-05-07T02:15:51.632Z,3.69
2018-05-07T02:16:04.037Z,3.69
2018-05-07T02:16:16.454Z,3.69
2018-05-07T02:16:28.912Z,3.69
2018-05-07T02:16:41.320Z,3.69
2018-05-07T02:16:53.745Z,3.69
2018-05-07T02:17:06.153Z,3.69
2018-05-07T02:17:18.567Z,3.69
2018-05-07T02:17:30.981Z,3.69
2018-05-07T02:17:43.399Z,3.69
2018-05-07T02:17:55.807Z,3.69
2018-05-07T02:18:08.220Z,3.69
2018-05-07T02:18:20.867Z,3.69
2018-05-07T02:18:33.286Z,3.69
2018-05-07T02:18:45.714Z,3.69
2018-05-07T02:18:58.115Z,3.69
2018-05-07T02:19:10.544Z,3.69
2018-05-07T02:19:22.936Z,3.69
2018-05-07T02:19:35.364Z,3.69
2018-05-07T02:19:47.795Z,3.69
2018-05-07T02:20:00.211Z,3.69
2018-05-07T02:20:12.623Z,3.69
2018-05-07T02:20:25.025Z,3.69
2018-05-07T02:20:37.501Z,3.69
2018-05-07T02:20:49.918Z,3.69
2018-05-07T02:21:02.334Z,3.69
2018-05-07T02:21:14.746Z,3.69
2018-05-07T02:21:27.158Z,3.69
2018-05-07T02:21:39.585Z,3.69
2018-05-07T02:21:52.075Z,3.69
2018-05-07T02:22:04.480Z,4.12
2018-05-07T02:22:16.878Z,4.12
2018-05-07T02:22:29.303Z,4.12
2018-05-07T02:22:41.717Z,4.12
2018-05-07T02:22:54.125Z,4.12
2018-05-07T02:23:06.558Z,4.12
2018-05-07T02:23:19.008Z,4.12
2018-05-07T02:23:31.419Z,4.12
2018-05-07T02:23:43.809Z,4.12
2018-05-07T02:23:56.358Z,4.12
2018-05-07T02:24:08.779Z,4.12
2018-05-07T02:24:21.188Z,4.12
2018-05-07T02:24:33.782Z,4.12
2018-05-07T02:24:46.182Z,4.12
2018-05-07T02:24:58.592Z,4.12
2018-05-07T02:25:11.005Z,4.12
2018-05-07T02:25:23.411Z,4.12
2018-05-07T02:25:35.818Z,4.12
2018-05-07T02:25:48.239Z,4.12
2018-05-07T02:26:00.656Z,4.12
2018-05-07T02:26:13.071Z,4.12
2018-05-07T02:26:25.476Z,4.12
2018-05-07T02:26:37.891Z,4.12
2018-05-07T02:26:50.323Z,4.12
2018-05-07T02:27:02.730Z,4.12
2018-05-07T02:27:15.140Z,4.12
2018-05-07T02:27:27.553Z,4.12
2018-05-07T02:27:39.956Z,4.12
2018-05-07T02:27:52.357Z,4.12
2018-05-07T02:28:04.782Z,4.12
2018-05-07T02:28:17.195Z,4.12
2018-05-07T02:28:29.622Z,4.12
2018-05-07T02:28:42.021Z,4.12
2018-05-07T02:28:54.435Z,4.12
2018-05-07T02:29:06.855Z,4.12
2018-05-07T02:29:19.353Z,4.12
2018-05-07T02:29:31.799Z,4.12
2018-05-07T02:29:44.317Z,4.12
2018-05-07T02:29:56.730Z,4.12
2018-05-07T02:30:09.182Z,4.12
2018-05-07T02:30:21.613Z,4.12
2018-05-07T02:30:34.057Z,4.12
2018-05-07T02:30:46.481Z,4.12
2018-05-07T02:30:58.909Z,4.12
2018-05-07T02:31:11.334Z,4.12
2018-05-07T02:31:24.469Z,4.12
2018-05-07T02:31:37.434Z,4.12
2018-05-07T02:31:49.858Z,4.12
2018-05-07T02:32:02.304Z,4.19
2018-05-07T02:32:14.723Z,4.19
2018-05-07T02:32:27.148Z,4.19
2018-05-07T02:32:39.572Z,4.19
2018-05-07T02:32:52.007Z,4.19
2018-05-07T02:33:04.479Z,4.19
2018-05-07T02:33:16.908Z,4.19
2018-05-07T02:33:29.384Z,4.19
2018-05-07T02:33:41.837Z,4.19
2018-05-07T02:33:54.250Z,4.19
2018-05-07T02:34:06.683Z,4.19
2018-05-07T02:34:19.099Z,4.19
2018-05-07T02:34:31.527Z,4.19
2018-05-07T02:34:44.013Z,4.19
2018-05-07T02:34:56.447Z,4.19
2018-05-07T02:35:08.910Z,4.19
2018-05-07T02:35:21.458Z,4.19
2018-05-07T02:35:33.882Z,4.19
2018-05-07T02:35:46.299Z,4.19
2018-05-07T02:35:58.719Z,4.19
2018-05-07T02:36:11.139Z,4.19
2018-05-07T02:36:23.580Z,4.19
2018-05-07T02:36:36.014Z,4.19
2018-05-07T02:36:48.459Z,4.19
2018-05-07T02:37:00.951Z,4.19
2018-05-07T02:37:13.398Z,4.19
2018-05-07T02:37:25.843Z,4.19
2018-05-07T02:37:38.317Z,4.19
2018-05-07T02:37:50.728Z,4.19
2018-05-07T02:38:03.171Z,4.19
2018-05-07T02:38:15.580Z,4.19
2018-05-07T02:38:28.131Z,4.19
2018-05-07T02:38:40.578Z,4.19
2018-05-07T02:38:53.121Z,4.19
2018-05-07T02:39:06.453Z,4.19
2018-05-07T02:39:19.117Z,4.19
2018-05-07T02:39:31.581Z,4.19
2018-05-07T02:39:43.983Z,4.19
2018-05-07T02:39:56.422Z,4.19
2018-05-07T02:40:08.858Z,4.19
2018-05-07T02:40:21.283Z,4.19
2018-05-07T02:40:33.706Z,4.19
2018-05-07T02:40:46.128Z,4.19
2018-05-07T02:40:58.537Z,4.19
2018-05-07T02:41:10.961Z,4.19
2018-05-07T02:41:23.374Z,4.19
2018-05-07T02:41:35.807Z,4.19
2018-05-07T02:41:48.322Z,4.19
2018-05-07T02:42:00.764Z,4.07
2018-05-07T02:42:13.206Z,4.07
2018-05-07T02:42:25.629Z,4.07
2018-05-07T02:42:38.057Z,4.07
2018-05-07T02:42:50.563Z,4.07
2018-05-07T02:43:02.983Z,4.07
2018-05-07T02:43:15.418Z,4.07
2018-05-07T02:43:27.894Z,4.07
2018-05-07T02:43:40.320Z,4.07
2018-05-07T02:43:53.069Z,4.07
2018-05-07T02:44:05.503Z,4.07
2018-05-07T02:44:17.971Z,4.07
2018-05-07T02:44:30.612Z,4.07
2018-05-07T02:44:43.033Z,4.07
2018-05-07T02:44:55.469Z,4.07
2018-05-07T02:45:07.916Z,4.07
2018-05-07T02:45:20.338Z,4.07
2018-05-07T02:45:32.765Z,4.07
2018-05-07T02:45:45.193Z,4.07
2018-05-07T02:45:57.637Z,4.07
2018-05-07T02:46:10.088Z,4.07
2018-05-07T02:46:22.538Z,4.07